Stk-1004 — UBEM — position and weather

sailwx.info

Track history (hours):
 
Tides and Currents Weather Stations Pressure Air Temp Water Temp Dewpoint Dewpoint Depression Visibility Wind Speed Wind Dir Waves Ship Positions

Stk-1004

Last reported at 2015-Jun-30 16:33 UTC. Time now 2015-Jul-07 06:50 UTC.
Position N 59°52' E 030°29'.

Length 82 m; draft 2.4 m.

Type: Cargo ship. MMSI: 273439130.

Date/timePositionNaut miles runAvg speedWind from/ knotsBaromVisibWave heightAir tempDewpointWater temp
2015-Jun-30 16:33N 59°52' E 030°29'5 4.3
2015-Jun-30 15:28N 59°55' E 030°24'0 0.0
2015-Jun-30 14:33N 59°55' E 030°24'0 0.0
2015-Jun-30 13:26N 59°55' E 030°24'0 0.0
2015-Jun-30 12:25N 59°55' E 030°24'0 0.0
2015-Jun-30 11:26N 59°55' E 030°24'0 0.0
2015-Jun-30 10:15N 59°55' E 030°24'0 0.0
2015-Jun-30 09:28N 59°55' E 030°24'0 0.0
2015-Jun-30 08:04N 59°55' E 030°24'0 0.0
2015-Jun-30 07:27N 59°55' E 030°24'0 0.0
2015-Jun-30 05:20N 59°55' E 030°24'0 0.0
2015-Jun-30 04:17N 59°55' E 030°24'0 0.0
2015-Jun-30 03:27N 59°55' E 030°24'0 0.0
2015-Jun-30 02:33N 59°55' E 030°24'0 0.0
2015-Jun-30 01:32N 59°55' E 030°24'0 0.0
2015-Jun-30 00:33N 59°55' E 030°24'1 0.5
2015-Jun-29 23:33N 59°56' E 030°24'3 3.0
2015-Jun-29 22:33N 59°56' E 030°18'0 0.3
2015-Jun-29 21:33N 59°56' E 030°17'0 0.0
2015-Jun-29 20:33N 59°56' E 030°17'0 0.0
2015-Jun-29 19:33N 59°56' E 030°17'0 0.0
2015-Jun-29 18:33N 59°56' E 030°17'0 0.0
2015-Jun-29 17:33N 59°56' E 030°17'0 0.0
2015-Jun-29 16:33N 59°56' E 030°17'0 0.0
2015-Jun-29 15:33N 59°56' E 030°17'0 0.0
2015-Jun-29 14:33N 59°56' E 030°17'0 0.0
2015-Jun-29 13:33N 59°56' E 030°17'0 0.0
2015-Jun-29 12:33N 59°56' E 030°17'0 0.0
2015-Jun-29 11:33N 59°56' E 030°17'3 3.2
2015-Jun-29 10:33N 59°56' E 030°11'7 7.5
2015-Jun-29 09:33N 59°56' E 029°56'8 8.2
2015-Jun-29 08:33N 59°60' E 029°41'  
2015-Jun-27 03:19N 59°59' E 029°45'5 5.7
2015-Jun-27 02:21N 59°56' E 029°55'7 5.9
2015-Jun-27 01:14N 59°54' E 030°07'6 6.5
2015-Jun-27 00:18N 59°56' E 030°18'3 3.8
2015-Jun-26 23:33N 59°56' E 030°24'0 0.3
2015-Jun-26 22:32N 59°55' E 030°24'0 0.0
2015-Jun-26 21:30N 59°55' E 030°24'0 0.0
2015-Jun-26 20:33N 59°55' E 030°24'0 0.0
2015-Jun-26 19:32N 59°55' E 030°24'0 0.0
2015-Jun-26 18:32N 59°55' E 030°24'0 0.0
2015-Jun-26 17:29N 59°55' E 030°24'0 0.0
2015-Jun-26 16:30N 59°55' E 030°24'0 0.0
2015-Jun-26 15:28N 59°55' E 030°24'0 0.0
2015-Jun-26 14:33N 59°55' E 030°24'0 0.0
2015-Jun-26 13:33N 59°55' E 030°24'2 1.8
2015-Jun-26 12:33N 59°54' E 030°26'  
Track history (hours):
 
Tides and Currents Weather Stations Pressure Air Temp Water Temp Dewpoint Dewpoint Depression Visibility Wind Speed Wind Dir Waves Ship Positions

Stk-1004

Last reported at 2015-Jun-30 16:33 UTC. Time now 2015-Jul-07 06:50 UTC.
Position N 59°52' E 030°29'.

Length 82 m; draft 2.4 m.

Type: Cargo ship. MMSI: 273439130.

Date/timePositionNaut miles runAvg speedWind from/ knotsBaromVisibWave heightAir tempDewpointWater temp
2015-Jun-30 16:33N 59°52' E 030°29'5 4.3
2015-Jun-30 15:28N 59°55' E 030°24'0 0.0
2015-Jun-30 14:33N 59°55' E 030°24'0 0.0
2015-Jun-30 13:26N 59°55' E 030°24'0 0.0
2015-Jun-30 12:25N 59°55' E 030°24'0 0.0
2015-Jun-30 11:26N 59°55' E 030°24'0 0.0
2015-Jun-30 10:15N 59°55' E 030°24'0 0.0
2015-Jun-30 09:28N 59°55' E 030°24'0 0.0
2015-Jun-30 08:04N 59°55' E 030°24'0 0.0
2015-Jun-30 07:27N 59°55' E 030°24'0 0.0
2015-Jun-30 05:20N 59°55' E 030°24'0 0.0
2015-Jun-30 04:17N 59°55' E 030°24'0 0.0
2015-Jun-30 03:27N 59°55' E 030°24'0 0.0
2015-Jun-30 02:33N 59°55' E 030°24'0 0.0
2015-Jun-30 01:32N 59°55' E 030°24'0 0.0
2015-Jun-30 00:33N 59°55' E 030°24'1 0.5
2015-Jun-29 23:33N 59°56' E 030°24'3 3.0
2015-Jun-29 22:33N 59°56' E 030°18'0 0.3
2015-Jun-29 21:33N 59°56' E 030°17'0 0.0
2015-Jun-29 20:33N 59°56' E 030°17'0 0.0
2015-Jun-29 19:33N 59°56' E 030°17'0 0.0
2015-Jun-29 18:33N 59°56' E 030°17'0 0.0
2015-Jun-29 17:33N 59°56' E 030°17'0 0.0
2015-Jun-29 16:33N 59°56' E 030°17'0 0.0
2015-Jun-29 15:33N 59°56' E 030°17'0 0.0
2015-Jun-29 14:33N 59°56' E 030°17'0 0.0
2015-Jun-29 13:33N 59°56' E 030°17'0 0.0
2015-Jun-29 12:33N 59°56' E 030°17'0 0.0
2015-Jun-29 11:33N 59°56' E 030°17'3 3.2
2015-Jun-29 10:33N 59°56' E 030°11'7 7.5
2015-Jun-29 09:33N 59°56' E 029°56'8 8.2
2015-Jun-29 08:33N 59°60' E 029°41'  
2015-Jun-27 03:19N 59°59' E 029°45'5 5.7
2015-Jun-27 02:21N 59°56' E 029°55'7 5.9
2015-Jun-27 01:14N 59°54' E 030°07'6 6.5
2015-Jun-27 00:18N 59°56' E 030°18'3 3.8
2015-Jun-26 23:33N 59°56' E 030°24'0 0.3
2015-Jun-26 22:32N 59°55' E 030°24'0 0.0
2015-Jun-26 21:30N 59°55' E 030°24'0 0.0
2015-Jun-26 20:33N 59°55' E 030°24'0 0.0
2015-Jun-26 19:32N 59°55' E 030°24'0 0.0
2015-Jun-26 18:32N 59°55' E 030°24'0 0.0
2015-Jun-26 17:29N 59°55' E 030°24'0 0.0
2015-Jun-26 16:30N 59°55' E 030°24'0 0.0
2015-Jun-26 15:28N 59°55' E 030°24'0 0.0
2015-Jun-26 14:33N 59°55' E 030°24'0 0.0
2015-Jun-26 13:33N 59°55' E 030°24'2 1.8
2015-Jun-26 12:33N 59°54' E 030°26'  

Dump ship's entire track history